createdAt,value
2023-10-01T00:00:43.145Z,88.20
2023-10-01T00:01:42.692Z,88.06
2023-10-01T00:02:42.663Z,88.20
2023-10-01T00:03:42.627Z,89.32
2023-10-01T00:04:42.713Z,89.37
2023-10-01T00:05:42.660Z,89.06
2023-10-01T00:06:42.589Z,89.47
2023-10-01T00:07:42.591Z,89.37
2023-10-01T00:08:42.577Z,89.37
2023-10-01T00:09:42.561Z,89.26
2023-10-01T00:10:42.587Z,89.67
2023-10-01T00:11:43.168Z,89.47
2023-10-01T00:12:42.556Z,89.67
2023-10-01T00:13:42.551Z,89.37
2023-10-01T00:14:42.522Z,90.08
2023-10-01T00:15:42.554Z,89.37
2023-10-01T00:16:42.598Z,89.98
2023-10-01T00:17:42.590Z,90.49
2023-10-01T00:18:42.509Z,90.33
2023-10-01T00:19:42.491Z,90.19
2023-10-01T00:20:42.487Z,90.43
2023-10-01T00:21:42.496Z,90.33
2023-10-01T00:22:42.514Z,90.23
2023-10-01T00:23:42.468Z,90.33
2023-10-01T00:24:42.456Z,90.94
2023-10-01T00:25:42.590Z,90.74
2023-10-01T00:26:42.446Z,90.23
2023-10-01T00:27:42.450Z,90.02
2023-10-01T00:28:42.435Z,89.61
2023-10-01T00:29:42.448Z,89.31
2023-10-01T00:30:42.426Z,89.51
2023-10-01T00:31:42.654Z,89.72
2023-10-01T00:32:42.440Z,89.51
2023-10-01T00:33:42.450Z,89.26
2023-10-01T00:34:42.407Z,89.20
2023-10-01T00:35:42.848Z,89.61
2023-10-01T00:36:42.383Z,89.31
2023-10-01T00:37:42.398Z,89.41
2023-10-01T00:38:42.389Z,89.31
2023-10-01T00:39:42.549Z,89.61
2023-10-01T00:40:42.421Z,89.72
2023-10-01T00:41:42.366Z,89.41
2023-10-01T00:42:42.348Z,89.41
2023-10-01T00:43:42.417Z,89.58
2023-10-01T00:44:42.883Z,89.31
2023-10-01T00:45:42.375Z,89.61
2023-10-01T00:46:42.380Z,88.96
2023-10-01T00:47:42.375Z,89.00
2023-10-01T00:48:42.299Z,88.59
2023-10-01T00:49:42.330Z,88.85
2023-10-01T00:50:42.301Z,88.85
2023-10-01T00:51:42.277Z,88.96
2023-10-01T00:52:42.290Z,88.04
2023-10-01T00:53:42.280Z,88.04
2023-10-01T00:54:42.265Z,88.55
2023-10-01T00:55:42.271Z,88.04
2023-10-01T00:56:42.258Z,88.08
2023-10-01T00:57:42.245Z,88.04
2023-10-01T00:58:42.248Z,88.65
2023-10-01T00:59:42.237Z,89.37
2023-10-01T01:00:42.217Z,89.47
2023-10-01T01:01:42.258Z,89.37
2023-10-01T01:02:42.339Z,89.26
2023-10-01T01:03:42.351Z,89.47
2023-10-01T01:04:42.243Z,89.67
2023-10-01T01:05:42.239Z,89.58
2023-10-01T01:06:42.627Z,89.58
2023-10-01T01:07:42.176Z,89.92
2023-10-01T01:08:42.155Z,90.08
2023-10-01T01:09:42.165Z,90.02
2023-10-01T01:10:42.209Z,90.23
2023-10-01T01:11:42.130Z,91.05
2023-10-01T01:12:42.566Z,90.64
2023-10-01T01:13:42.192Z,90.19
2023-10-01T01:14:42.123Z,90.64
2023-10-01T01:15:42.169Z,90.02
2023-10-01T01:16:42.346Z,89.88
2023-10-01T01:17:42.206Z,89.61
2023-10-01T01:18:42.078Z,89.47
2023-10-01T01:19:42.077Z,89.37
2023-10-01T01:20:42.078Z,89.06
2023-10-01T01:21:42.086Z,89.26
2023-10-01T01:22:42.111Z,89.06
2023-10-01T01:23:42.063Z,89.47
2023-10-01T01:24:42.082Z,89.26
2023-10-01T01:25:42.046Z,89.41
2023-10-01T01:26:42.038Z,89.26
2023-10-01T01:27:42.093Z,89.51
2023-10-01T01:28:42.136Z,89.61
2023-10-01T01:29:42.071Z,89.61
2023-10-01T01:30:42.055Z,89.82
2023-10-01T01:31:42.177Z,89.92
2023-10-01T01:32:42.165Z,90.53
2023-10-01T01:33:42.310Z,90.02
2023-10-01T01:34:41.984Z,90.23
2023-10-01T01:35:42.068Z,90.12
2023-10-01T01:36:41.954Z,90.17
2023-10-01T01:37:41.987Z,90.43
2023-10-01T01:38:41.937Z,90.27
2023-10-01T01:39:42.305Z,90.43
2023-10-01T01:40:42.021Z,90.37
2023-10-01T01:41:41.932Z,90.17
2023-10-01T01:42:41.922Z,90.06
2023-10-01T01:43:41.980Z,90.12
2023-10-01T01:44:41.916Z,90.06
2023-10-01T01:45:41.912Z,89.97
2023-10-01T01:46:41.971Z,89.92
2023-10-01T01:47:41.950Z,89.97
2023-10-01T01:48:42.142Z,90.06
2023-10-01T01:49:41.883Z,90.47
2023-10-01T01:50:42.313Z,90.47
2023-10-01T01:51:41.872Z,90.88
2023-10-01T01:52:41.857Z,91.03
2023-10-01T01:53:41.867Z,91.33
2023-10-01T01:54:41.848Z,91.74
2023-10-01T01:55:41.835Z,91.48
2023-10-01T01:56:42.030Z,91.78
2023-10-01T01:57:41.808Z,93.01
2023-10-01T01:58:42.373Z,92.71
2023-10-01T01:59:41.813Z,92.40
2023-10-01T02:00:41.810Z,92.75
2023-10-01T02:01:42.048Z,93.01
2023-10-01T02:02:41.884Z,93.01
2023-10-01T02:03:41.869Z,93.01
2023-10-01T02:04:41.776Z,93.43
2023-10-01T02:05:41.765Z,93.32
2023-10-01T02:06:41.765Z,93.47
2023-10-01T02:07:41.758Z,93.06
2023-10-01T02:08:41.732Z,93.37
2023-10-01T02:09:41.762Z,92.81
2023-10-01T02:10:41.723Z,93.57
2023-10-01T02:11:41.713Z,93.57
2023-10-01T02:12:42.076Z,93.01
2023-10-01T02:13:41.701Z,93.22
2023-10-01T02:14:41.724Z,93.32
2023-10-01T02:15:41.700Z,93.12
2023-10-01T02:16:42.109Z,92.60
2023-10-01T02:17:41.726Z,92.50
2023-10-01T02:18:41.667Z,92.19
2023-10-01T02:19:41.661Z,92.10
2023-10-01T02:20:41.668Z,92.05
2023-10-01T02:21:41.653Z,92.05
2023-10-01T02:22:41.648Z,92.36
2023-10-01T02:23:41.672Z,92.15
2023-10-01T02:24:41.657Z,91.64
2023-10-01T02:25:41.710Z,92.25
2023-10-01T02:26:41.620Z,91.70
2023-10-01T02:27:41.607Z,91.60
2023-10-01T02:28:41.615Z,90.88
2023-10-01T02:29:41.608Z,90.99
2023-10-01T02:30:41.622Z,90.99
2023-10-01T02:31:41.698Z,91.09
2023-10-01T02:32:41.648Z,91.50
2023-10-01T02:33:41.564Z,90.68
2023-10-01T02:34:42.030Z,90.99
2023-10-01T02:35:41.571Z,91.09
2023-10-01T02:36:41.540Z,90.82
2023-10-01T02:37:41.562Z,90.58
2023-10-01T02:38:41.557Z,90.78
2023-10-01T02:39:41.595Z,90.99
2023-10-01T02:40:41.619Z,90.88
2023-10-01T02:41:41.550Z,91.09
2023-10-01T02:42:41.546Z,90.58
2023-10-01T02:43:41.539Z,90.68
2023-10-01T02:44:41.608Z,90.92
2023-10-01T02:45:41.568Z,91.29
2023-10-01T02:46:41.547Z,90.58
2023-10-01T02:47:41.541Z,91.09
2023-10-01T02:48:41.520Z,90.72
2023-10-01T02:49:41.469Z,90.68
2023-10-01T02:50:41.439Z,90.52
2023-10-01T02:51:41.449Z,90.82
2023-10-01T02:52:41.442Z,90.41
2023-10-01T02:53:41.420Z,90.47
2023-10-01T02:54:41.440Z,91.13
2023-10-01T02:55:41.430Z,90.92
2023-10-01T02:56:41.431Z,91.23
2023-10-01T02:57:41.446Z,91.13
2023-10-01T02:58:41.394Z,91.33
2023-10-01T02:59:41.386Z,91.44
2023-10-01T03:00:41.421Z,91.33
2023-10-01T03:01:41.451Z,91.33
2023-10-01T03:02:41.584Z,91.33
2023-10-01T03:03:41.437Z,91.19
2023-10-01T03:04:41.367Z,91.54
2023-10-01T03:05:41.342Z,91.74
2023-10-01T03:06:41.354Z,91.85
2023-10-01T03:07:41.362Z,91.13
2023-10-01T03:08:41.324Z,91.54
2023-10-01T03:09:41.330Z,91.74
2023-10-01T03:10:41.316Z,91.70
2023-10-01T03:11:41.397Z,91.95
2023-10-01T03:12:41.311Z,91.74
2023-10-01T03:13:41.589Z,91.85
2023-10-01T03:14:41.301Z,91.80
2023-10-01T03:15:41.295Z,91.64
2023-10-01T03:16:41.382Z,91.39
2023-10-01T03:17:41.306Z,91.33
2023-10-01T03:18:41.861Z,91.39
2023-10-01T03:19:41.260Z,90.99
2023-10-01T03:20:42.090Z,90.99
2023-10-01T03:21:41.240Z,90.27
2023-10-01T03:22:41.260Z,91.19
2023-10-01T03:23:41.260Z,90.68
2023-10-01T03:24:41.224Z,90.74
2023-10-01T03:25:41.223Z,91.05
2023-10-01T03:26:41.200Z,90.37
2023-10-01T03:27:41.214Z,90.84
2023-10-01T03:28:41.190Z,91.09
2023-10-01T03:29:41.774Z,91.05
2023-10-01T03:30:41.265Z,90.88
2023-10-01T03:31:41.217Z,90.47
2023-10-01T03:32:41.193Z,90.23
2023-10-01T03:33:41.160Z,90.58
2023-10-01T03:34:41.153Z,90.64
2023-10-01T03:35:42.752Z,90.84
2023-10-01T03:36:41.145Z,91.09
2023-10-01T03:37:41.129Z,90.23
2023-10-01T03:38:41.113Z,90.12
2023-10-01T03:39:41.115Z,90.68
2023-10-01T03:40:41.129Z,90.37
2023-10-01T03:41:41.112Z,90.74
2023-10-01T03:42:41.099Z,90.88
2023-10-01T03:43:41.074Z,90.84
2023-10-01T03:44:41.115Z,90.58
2023-10-01T03:45:41.086Z,90.33
2023-10-01T03:46:41.129Z,90.23
2023-10-01T03:47:41.109Z,90.64
2023-10-01T03:48:41.058Z,90.53
2023-10-01T03:49:41.067Z,90.02
2023-10-01T03:50:41.031Z,90.19
2023-10-01T03:51:41.344Z,89.61
2023-10-01T03:52:41.129Z,89.72
2023-10-01T03:53:41.020Z,89.58
2023-10-01T03:54:41.010Z,89.61
2023-10-01T03:55:40.993Z,89.20
2023-10-01T03:56:41.003Z,89.37
2023-10-01T03:57:41.297Z,89.58
2023-10-01T03:58:40.979Z,89.58
2023-10-01T03:59:40.977Z,89.43
2023-10-01T04:00:40.989Z,89.53
2023-10-01T04:01:41.116Z,89.53
2023-10-01T04:02:41.028Z,88.71
2023-10-01T04:03:40.959Z,88.24
2023-10-01T04:04:40.991Z,88.35
2023-10-01T04:05:40.933Z,89.26
2023-10-01T04:06:40.933Z,89.26
2023-10-01T04:07:40.907Z,89.37
2023-10-01T04:08:41.000Z,88.96
2023-10-01T04:09:40.892Z,89.58
2023-10-01T04:10:40.964Z,88.85
2023-10-01T04:11:40.897Z,89.17
2023-10-01T04:12:40.871Z,88.96
2023-10-01T04:13:40.911Z,89.31
2023-10-01T04:14:40.868Z,89.51
2023-10-01T04:15:40.848Z,89.61
2023-10-01T04:16:40.981Z,89.41
2023-10-01T04:17:40.871Z,89.41
2023-10-01T04:18:40.824Z,89.92
2023-10-01T04:19:40.922Z,89.72
2023-10-01T04:20:40.808Z,89.41
2023-10-01T04:21:40.821Z,89.72
2023-10-01T04:22:40.813Z,89.37
2023-10-01T04:23:40.803Z,89.41
2023-10-01T04:24:41.246Z,89.61
2023-10-01T04:25:40.774Z,89.61
2023-10-01T04:26:40.858Z,89.78
2023-10-01T04:27:40.772Z,89.58
2023-10-01T04:28:40.753Z,89.47
2023-10-01T04:29:40.759Z,89.61
2023-10-01T04:30:40.802Z,90.12
2023-10-01T04:31:40.789Z,89.82
2023-10-01T04:32:40.792Z,90.02
2023-10-01T04:33:40.742Z,89.72
2023-10-01T04:34:40.718Z,89.51
2023-10-01T04:35:41.089Z,89.61
2023-10-01T04:36:40.736Z,89.61
2023-10-01T04:37:40.687Z,89.61
2023-10-01T04:38:40.681Z,89.72
2023-10-01T04:39:40.697Z,89.51
2023-10-01T04:40:41.661Z,89.61
2023-10-01T04:41:40.689Z,89.72
2023-10-01T04:42:40.678Z,89.51
2023-10-01T04:43:40.648Z,89.72
2023-10-01T04:44:40.653Z,89.61
2023-10-01T04:45:40.638Z,89.97
2023-10-01T04:46:41.379Z,90.17
2023-10-01T04:47:40.673Z,89.86
2023-10-01T04:48:40.624Z,90.06
2023-10-01T04:49:43.043Z,90.37
2023-10-01T04:50:40.610Z,90.41
2023-10-01T04:51:40.592Z,91.13
2023-10-01T04:52:40.598Z,90.31
2023-10-01T04:53:40.584Z,91.03
2023-10-01T04:54:40.587Z,91.33
2023-10-01T04:55:40.665Z,91.54
2023-10-01T04:56:40.584Z,91.13
2023-10-01T04:57:40.595Z,91.74
2023-10-01T04:58:40.539Z,91.89
2023-10-01T04:59:40.590Z,91.74
2023-10-01T05:00:40.523Z,91.78
2023-10-01T05:01:40.622Z,91.85
2023-10-01T05:02:40.570Z,91.33
2023-10-01T05:03:41.140Z,91.54
2023-10-01T05:04:40.672Z,91.64
2023-10-01T05:05:40.513Z,91.85
2023-10-01T05:06:40.496Z,91.99
2023-10-01T05:07:40.619Z,91.85
2023-10-01T05:08:40.492Z,91.33
2023-10-01T05:09:40.470Z,91.85
2023-10-01T05:10:40.462Z,91.85
2023-10-01T05:11:40.471Z,91.74
2023-10-01T05:12:40.458Z,91.54
2023-10-01T05:13:40.732Z,91.74
2023-10-01T05:14:40.448Z,91.23
2023-10-01T05:15:40.454Z,91.44
2023-10-01T05:16:40.579Z,91.44
2023-10-01T05:17:40.443Z,91.33
2023-10-01T05:18:40.413Z,90.47
2023-10-01T05:19:41.762Z,91.13
2023-10-01T05:20:40.401Z,90.82
2023-10-01T05:21:40.424Z,90.82
2023-10-01T05:22:40.422Z,90.99
2023-10-01T05:23:40.377Z,90.17
2023-10-01T05:24:40.422Z,90.78
2023-10-01T05:25:40.378Z,90.27
2023-10-01T05:26:40.368Z,90.47
2023-10-01T05:27:40.355Z,90.27
2023-10-01T05:28:40.390Z,90.47
2023-10-01T05:29:40.629Z,90.58
2023-10-01T05:30:40.357Z,90.47
2023-10-01T05:31:40.417Z,90.21
2023-10-01T05:32:40.384Z,90.17
2023-10-01T05:33:40.314Z,90.47
2023-10-01T05:34:40.305Z,90.41
2023-10-01T05:35:40.305Z,90.41
2023-10-01T05:36:40.296Z,90.82
2023-10-01T05:37:40.342Z,90.92
2023-10-01T05:38:40.269Z,90.92
2023-10-01T05:39:40.283Z,91.13
2023-10-01T05:40:40.275Z,91.03
2023-10-01T05:41:40.256Z,91.23
2023-10-01T05:42:40.242Z,90.92
2023-10-01T05:43:40.301Z,90.82
2023-10-01T05:44:40.243Z,90.72
2023-10-01T05:45:40.322Z,91.33
2023-10-01T05:46:40.343Z,90.92
2023-10-01T05:47:40.253Z,90.11
2023-10-01T05:48:40.240Z,90.31
2023-10-01T05:49:40.209Z,90.31
2023-10-01T05:50:40.208Z,90.52
2023-10-01T05:51:40.208Z,90.27
2023-10-01T05:52:40.506Z,90.37
2023-10-01T05:53:40.319Z,90.37
2023-10-01T05:54:40.240Z,90.21
2023-10-01T05:55:40.286Z,90.31
2023-10-01T05:56:40.172Z,90.21
2023-10-01T05:57:40.187Z,90.31
2023-10-01T05:58:40.231Z,90.41
2023-10-01T05:59:40.133Z,90.47
2023-10-01T06:00:40.144Z,90.58
2023-10-01T06:01:40.218Z,90.27
2023-10-01T06:02:40.128Z,90.58
2023-10-01T06:03:40.173Z,90.17
2023-10-01T06:04:40.148Z,90.17
2023-10-01T06:05:40.100Z,89.76
2023-10-01T06:06:40.098Z,89.41
2023-10-01T06:07:40.075Z,89.47
2023-10-01T06:08:41.034Z,89.17
2023-10-01T06:09:40.089Z,87.90
2023-10-01T06:10:40.099Z,87.30
2023-10-01T06:11:40.170Z,85.57
2023-10-01T06:12:40.044Z,84.88
2023-10-01T06:13:40.172Z,83.92
2023-10-01T06:14:40.070Z,83.07
2023-10-01T06:15:40.041Z,81.30
2023-10-01T06:16:40.090Z,81.06
2023-10-01T06:17:40.029Z,80.00
2023-10-01T06:18:40.005Z,78.75
2023-10-01T06:19:40.125Z,79.16
2023-10-01T06:20:40.001Z,77.29
2023-10-01T06:21:40.125Z,77.22
2023-10-01T06:22:40.102Z,76.10
2023-10-01T06:23:39.970Z,75.96
2023-10-01T06:24:39.965Z,74.81
2023-10-01T06:25:40.078Z,74.41
2023-10-01T06:26:39.954Z,73.76
2023-10-01T06:27:39.941Z,73.73
2023-10-01T06:28:39.969Z,73.19
2023-10-01T06:29:39.916Z,72.48
2023-10-01T06:30:40.466Z,72.65
2023-10-01T06:31:40.025Z,73.70
2023-10-01T06:32:40.013Z,74.21
2023-10-01T06:33:39.911Z,74.85
2023-10-01T06:34:39.938Z,74.98
2023-10-01T06:35:39.901Z,74.98
2023-10-01T06:36:41.186Z,75.43
2023-10-01T06:37:39.976Z,76.14
2023-10-01T06:38:39.866Z,76.24
2023-10-01T06:39:39.842Z,75.83
2023-10-01T06:40:39.902Z,76.34
2023-10-01T06:41:39.931Z,76.03
2023-10-01T06:42:39.842Z,76.68
2023-10-01T06:43:39.816Z,77.05
2023-10-01T06:44:39.842Z,77.39
2023-10-01T06:45:39.832Z,75.79
2023-10-01T06:46:39.830Z,75.25
2023-10-01T06:47:39.833Z,75.22
2023-10-01T06:48:39.805Z,75.70
2023-10-01T06:49:39.807Z,75.86
2023-10-01T06:50:39.777Z,75.15
2023-10-01T06:51:39.762Z,74.17
2023-10-01T06:52:39.840Z,74.58
2023-10-01T06:53:39.814Z,74.98
2023-10-01T06:54:39.746Z,75.15
2023-10-01T06:55:39.765Z,75.05
2023-10-01T06:56:39.716Z,73.70
2023-10-01T06:57:39.873Z,74.34
2023-10-01T06:58:39.726Z,73.93
2023-10-01T06:59:39.706Z,74.44
2023-10-01T07:00:39.686Z,75.05
2023-10-01T07:01:39.862Z,75.22
2023-10-01T07:02:39.730Z,73.66
2023-10-01T07:03:39.733Z,73.66
2023-10-01T07:04:39.717Z,72.96
2023-10-01T07:05:39.667Z,73.22
2023-10-01T07:06:39.655Z,72.61
2023-10-01T07:07:39.677Z,71.97
2023-10-01T07:08:39.732Z,72.17
2023-10-01T07:09:39.823Z,71.37
2023-10-01T07:10:39.785Z,71.67
2023-10-01T07:11:39.934Z,71.37
2023-10-01T07:12:39.923Z,72.04
2023-10-01T07:13:39.712Z,71.40
2023-10-01T07:14:39.663Z,69.89
2023-10-01T07:15:39.721Z,70.18
2023-10-01T07:16:39.692Z,70.59
2023-10-01T07:17:39.618Z,69.58
2023-10-01T07:18:39.569Z,69.85
2023-10-01T07:19:39.677Z,69.34
2023-10-01T07:20:39.595Z,69.68
2023-10-01T07:21:39.580Z,69.98
2023-10-01T07:22:39.735Z,69.78
2023-10-01T07:23:39.528Z,70.18
2023-10-01T07:24:39.550Z,70.79
2023-10-01T07:25:40.193Z,71.00
2023-10-01T07:26:39.546Z,70.69
2023-10-01T07:27:39.534Z,69.75
2023-10-01T07:28:39.564Z,69.68
2023-10-01T07:29:39.517Z,70.05
2023-10-01T07:30:39.534Z,69.85
2023-10-01T07:31:39.582Z,69.07
2023-10-01T07:32:39.580Z,69.98
2023-10-01T07:33:39.493Z,70.49
2023-10-01T07:34:39.628Z,70.32
2023-10-01T07:35:39.499Z,70.32
2023-10-01T07:36:39.672Z,70.18
2023-10-01T07:37:39.464Z,70.09
2023-10-01T07:38:39.461Z,69.89
2023-10-01T07:39:39.418Z,69.71
2023-10-01T07:40:39.912Z,71.30
2023-10-01T07:41:39.470Z,72.14
2023-10-01T07:42:39.524Z,73.09
2023-10-01T07:43:39.520Z,73.25
2023-10-01T07:44:39.405Z,73.66
2023-10-01T07:45:39.508Z,73.76
2023-10-01T07:46:39.453Z,73.53
2023-10-01T07:47:39.936Z,72.61
2023-10-01T07:48:39.535Z,72.92
2023-10-01T07:49:39.453Z,72.61
2023-10-01T07:50:39.392Z,72.92
2023-10-01T07:51:39.373Z,72.17
2023-10-01T07:52:39.406Z,71.50
2023-10-01T07:53:39.418Z,71.53
2023-10-01T07:54:39.335Z,71.13
2023-10-01T07:55:39.352Z,69.82
2023-10-01T07:56:39.322Z,69.68
2023-10-01T07:57:39.297Z,69.08
2023-10-01T07:58:39.450Z,68.87
2023-10-01T07:59:39.312Z,69.42
2023-10-01T08:00:39.285Z,69.08
2023-10-01T08:01:39.545Z,69.01
2023-10-01T08:02:39.312Z,69.55
2023-10-01T08:03:39.253Z,71.47
2023-10-01T08:04:39.291Z,71.67
2023-10-01T08:05:39.249Z,69.71
2023-10-01T08:06:39.234Z,69.98
2023-10-01T08:07:39.286Z,69.62
2023-10-01T08:08:39.224Z,70.53
2023-10-01T08:09:39.296Z,70.49
2023-10-01T08:10:39.248Z,68.84
2023-10-01T08:11:41.967Z,69.15
2023-10-01T08:12:39.225Z,69.21
2023-10-01T08:13:39.240Z,67.87
2023-10-01T08:14:39.184Z,67.33
2023-10-01T08:15:39.236Z,67.33
2023-10-01T08:16:39.240Z,66.50
2023-10-01T08:17:39.213Z,66.33
2023-10-01T08:18:39.159Z,66.86
2023-10-01T08:19:39.174Z,67.47
2023-10-01T08:20:39.504Z,67.67
2023-10-01T08:21:39.125Z,67.87
2023-10-01T08:22:39.164Z,67.83
2023-10-01T08:23:39.115Z,68.74
2023-10-01T08:24:39.115Z,68.81
2023-10-01T08:25:39.126Z,67.93
2023-10-01T08:26:39.098Z,69.15
2023-10-01T08:27:39.091Z,69.31
2023-10-01T08:28:39.120Z,68.51
2023-10-01T08:29:39.076Z,68.91
2023-10-01T08:30:39.635Z,68.81
2023-10-01T08:31:39.143Z,68.71
2023-10-01T08:32:39.120Z,67.63
2023-10-01T08:33:39.089Z,68.21
2023-10-01T08:34:39.045Z,67.87
2023-10-01T08:35:39.038Z,67.63
2023-10-01T08:36:39.026Z,66.13
2023-10-01T08:37:39.475Z,66.97
2023-10-01T08:38:39.025Z,65.46
2023-10-01T08:39:39.001Z,65.16
2023-10-01T08:40:39.078Z,65.56
2023-10-01T08:41:39.001Z,65.19
2023-10-01T08:42:39.036Z,64.69
2023-10-01T08:43:39.182Z,64.82
2023-10-01T08:44:38.966Z,64.45
2023-10-01T08:45:39.517Z,64.65
2023-10-01T08:46:39.056Z,65.76
2023-10-01T08:47:39.038Z,65.39
2023-10-01T08:48:38.983Z,65.89
2023-10-01T08:49:39.019Z,66.27
2023-10-01T08:50:38.999Z,65.16
2023-10-01T08:51:38.915Z,65.09
2023-10-01T08:52:38.954Z,65.49
2023-10-01T08:53:38.963Z,65.59
2023-10-01T08:54:38.899Z,65.36
2023-10-01T08:55:38.920Z,65.36
2023-10-01T08:56:38.882Z,64.72
2023-10-01T08:57:38.982Z,64.69
2023-10-01T08:58:38.922Z,63.65
2023-10-01T08:59:38.876Z,64.56
2023-10-01T09:00:38.897Z,64.23
2023-10-01T09:01:39.139Z,63.22
2023-10-01T09:02:38.890Z,63.25
2023-10-01T09:03:39.068Z,62.52
2023-10-01T09:04:38.983Z,63.96
2023-10-01T09:05:38.923Z,63.82
2023-10-01T09:06:38.828Z,63.05
2023-10-01T09:07:38.846Z,62.98
2023-10-01T09:08:38.799Z,64.49
2023-10-01T09:09:38.788Z,64.26
2023-10-01T09:10:38.934Z,63.12
2023-10-01T09:11:38.774Z,63.35
2023-10-01T09:12:38.780Z,63.56
2023-10-01T09:13:38.793Z,63.62
2023-10-01T09:14:38.753Z,63.36
2023-10-01T09:15:39.069Z,62.76
2023-10-01T09:16:38.804Z,61.33
2023-10-01T09:17:38.796Z,61.43
2023-10-01T09:18:38.747Z,62.53
2023-10-01T09:19:38.863Z,61.00
2023-10-01T09:20:38.730Z,59.99
2023-10-01T09:21:38.751Z,59.56
2023-10-01T09:22:38.765Z,60.66
2023-10-01T09:23:38.703Z,61.34
2023-10-01T09:24:38.707Z,60.01
2023-10-01T09:25:38.725Z,59.58
2023-10-01T09:26:38.944Z,58.18
2023-10-01T09:27:38.671Z,58.91
2023-10-01T09:28:38.711Z,58.43
2023-10-01T09:29:38.674Z,58.43
2023-10-01T09:30:38.647Z,60.03
2023-10-01T09:31:38.722Z,59.23
2023-10-01T09:32:38.886Z,59.20
2023-10-01T09:33:38.631Z,58.23
2023-10-01T09:34:38.752Z,58.43
2023-10-01T09:35:38.619Z,59.96
2023-10-01T09:36:38.610Z,59.89
2023-10-01T09:37:39.105Z,60.60
2023-10-01T09:38:38.634Z,59.96
2023-10-01T09:39:38.604Z,60.86
2023-10-01T09:40:38.597Z,59.77
2023-10-01T09:41:38.591Z,60.36
2023-10-01T09:42:38.665Z,59.86
2023-10-01T09:43:38.624Z,60.47
2023-10-01T09:44:38.567Z,60.27
2023-10-01T09:45:38.552Z,60.53
2023-10-01T09:46:38.661Z,59.61
2023-10-01T09:47:38.574Z,59.33
2023-10-01T09:48:38.908Z,60.24
2023-10-01T09:49:38.565Z,60.11
2023-10-01T09:50:38.513Z,59.70
2023-10-01T09:51:38.523Z,60.18
2023-10-01T09:52:38.565Z,58.32
2023-10-01T09:53:38.534Z,56.67
2023-10-01T09:54:38.848Z,56.16
2023-10-01T09:55:38.515Z,55.47
2023-10-01T09:56:38.484Z,56.39
2023-10-01T09:57:38.607Z,56.89
2023-10-01T09:58:38.511Z,56.02
2023-10-01T09:59:39.053Z,57.85
2023-10-01T10:00:38.446Z,58.15
2023-10-01T10:01:38.671Z,58.25
2023-10-01T10:02:38.484Z,57.39
2023-10-01T10:03:38.444Z,55.87
2023-10-01T10:04:38.491Z,55.94
2023-10-01T10:05:38.457Z,54.84
2023-10-01T10:06:38.414Z,55.57
2023-10-01T10:07:38.444Z,55.64
2023-10-01T10:08:38.407Z,56.24
2023-10-01T10:09:38.423Z,55.74
2023-10-01T10:10:38.490Z,56.34
2023-10-01T10:11:38.410Z,54.94
2023-10-01T10:12:38.368Z,56.34
2023-10-01T10:13:38.616Z,55.49
2023-10-01T10:14:38.354Z,53.79
2023-10-01T10:15:38.357Z,54.47
2023-10-01T10:16:38.441Z,56.59
2023-10-01T10:17:38.370Z,56.89
2023-10-01T10:18:38.342Z,56.20
2023-10-01T10:19:38.364Z,55.79
2023-10-01T10:20:42.345Z,55.89
2023-10-01T10:21:38.630Z,55.84
2023-10-01T10:22:38.330Z,54.61
2023-10-01T10:23:38.308Z,55.99
2023-10-01T10:24:38.317Z,54.86
2023-10-01T10:25:38.349Z,53.74
2023-10-01T10:26:38.274Z,53.04
2023-10-01T10:27:38.276Z,53.86
2023-10-01T10:28:38.315Z,53.09
2023-10-01T10:29:38.261Z,54.41
2023-10-01T10:30:38.267Z,55.51
2023-10-01T10:31:39.067Z,55.94
2023-10-01T10:32:38.812Z,53.92
2023-10-01T10:33:38.247Z,54.61
2023-10-01T10:34:38.302Z,53.96
2023-10-01T10:35:38.223Z,54.36
2023-10-01T10:36:38.240Z,54.39
2023-10-01T10:37:38.514Z,54.06
2023-10-01T10:38:38.405Z,54.06
2023-10-01T10:39:38.213Z,53.59
2023-10-01T10:40:38.427Z,54.32
2023-10-01T10:41:38.224Z,55.69
2023-10-01T10:42:38.194Z,54.79
2023-10-01T10:43:38.433Z,54.29
2023-10-01T10:44:38.326Z,54.06
2023-10-01T10:45:38.292Z,54.36
2023-10-01T10:46:38.367Z,53.66
2023-10-01T10:47:38.375Z,53.36
2023-10-01T10:48:38.151Z,54.57
2023-10-01T10:49:38.466Z,54.96
2023-10-01T10:50:38.151Z,53.84
2023-10-01T10:51:38.117Z,53.74
2023-10-01T10:52:38.280Z,54.64
2023-10-01T10:53:38.171Z,54.46
2023-10-01T10:54:38.696Z,55.26
2023-10-01T10:55:38.179Z,54.44
2023-10-01T10:56:38.100Z,56.31
2023-10-01T10:57:38.126Z,56.18
2023-10-01T10:58:38.135Z,55.41
2023-10-01T10:59:38.071Z,54.91
2023-10-01T11:00:38.106Z,55.29
2023-10-01T11:01:38.146Z,54.53
2023-10-01T11:02:38.049Z,53.71
2023-10-01T11:03:38.068Z,54.24
2023-10-01T11:04:38.064Z,55.26
2023-10-01T11:05:38.739Z,55.33
2023-10-01T11:06:38.097Z,54.24
2023-10-01T11:07:38.054Z,55.33
2023-10-01T11:08:38.014Z,55.24
2023-10-01T11:09:38.033Z,54.44
2023-10-01T11:10:38.028Z,54.86
2023-10-01T11:11:42.317Z,55.46
2023-10-01T11:12:38.981Z,55.09
2023-10-01T11:13:38.132Z,56.06
2023-10-01T11:14:37.964Z,54.36
2023-10-01T11:15:37.991Z,54.89
2023-10-01T11:16:38.211Z,55.56
2023-10-01T11:17:38.039Z,55.71
2023-10-01T11:18:37.990Z,54.08
2023-10-01T11:19:38.398Z,53.76
2023-10-01T11:20:37.923Z,52.74
2023-10-01T11:21:37.945Z,53.24
2023-10-01T11:22:37.978Z,52.37
2023-10-01T11:23:37.948Z,52.99
2023-10-01T11:24:37.937Z,53.49
2023-10-01T11:25:37.907Z,54.21
2023-10-01T11:26:37.938Z,55.33
2023-10-01T11:27:37.966Z,54.31
2023-10-01T11:28:37.975Z,54.71
2023-10-01T11:29:37.912Z,54.81
2023-10-01T11:30:37.962Z,54.94
2023-10-01T11:31:38.072Z,55.71
2023-10-01T11:32:37.975Z,54.51
2023-10-01T11:33:37.935Z,55.73
2023-10-01T11:34:37.869Z,54.94
2023-10-01T11:35:37.925Z,55.76
2023-10-01T11:36:37.861Z,54.76
2023-10-01T11:37:37.919Z,56.06
2023-10-01T11:38:38.081Z,55.36
2023-10-01T11:39:37.847Z,56.09
2023-10-01T11:40:37.880Z,55.36
2023-10-01T11:41:37.801Z,55.49
2023-10-01T11:42:37.781Z,56.18
2023-10-01T11:43:37.903Z,55.96
2023-10-01T11:44:37.830Z,55.06
2023-10-01T11:45:37.805Z,55.04
2023-10-01T11:46:37.833Z,54.51
2023-10-01T11:47:37.824Z,55.13
2023-10-01T11:48:37.756Z,55.88
2023-10-01T11:49:38.185Z,56.81
2023-10-01T11:50:37.730Z,56.81
2023-10-01T11:51:37.806Z,57.48
2023-10-01T11:52:37.742Z,57.39
2023-10-01T11:53:37.713Z,57.43
2023-10-01T11:54:37.738Z,55.86
2023-10-01T11:55:37.778Z,56.26
2023-10-01T11:56:37.777Z,55.76
2023-10-01T11:57:37.701Z,55.76
2023-10-01T11:58:37.704Z,56.26
2023-10-01T11:59:37.716Z,56.16
2023-10-01T12:00:37.742Z,56.46
2023-10-01T12:01:37.799Z,55.86
2023-10-01T12:02:37.682Z,56.06
2023-10-01T12:03:37.790Z,56.16
2023-10-01T12:04:37.851Z,55.73
2023-10-01T12:05:37.678Z,55.01
2023-10-01T12:06:37.684Z,56.01
2023-10-01T12:07:37.669Z,55.31
2023-10-01T12:08:37.634Z,56.18
2023-10-01T12:09:39.804Z,54.98
2023-10-01T12:10:37.627Z,54.49
2023-10-01T12:11:37.881Z,55.26
2023-10-01T12:12:37.604Z,54.24
2023-10-01T12:13:37.624Z,54.13
2023-10-01T12:14:37.612Z,54.80
2023-10-01T12:15:37.613Z,54.13
2023-10-01T12:16:37.659Z,54.24
2023-10-01T12:17:37.608Z,54.21
2023-10-01T12:18:37.559Z,54.11
2023-10-01T12:19:37.609Z,53.24
2023-10-01T12:20:37.530Z,54.36
2023-10-01T12:21:37.540Z,54.08
2023-10-01T12:22:38.143Z,55.61
2023-10-01T12:23:37.519Z,56.01
2023-10-01T12:24:37.530Z,55.63
2023-10-01T12:25:37.594Z,55.83
2023-10-01T12:26:37.622Z,55.80
2023-10-01T12:27:37.491Z,56.21
2023-10-01T12:28:37.514Z,55.41
2023-10-01T12:29:37.494Z,55.54
2023-10-01T12:30:37.491Z,56.03
2023-10-01T12:31:37.557Z,55.91
2023-10-01T12:32:37.489Z,55.56
2023-10-01T12:33:37.880Z,56.16
2023-10-01T12:34:37.559Z,55.86
2023-10-01T12:35:37.483Z,56.06
2023-10-01T12:36:37.434Z,56.53
2023-10-01T12:37:37.456Z,55.71
2023-10-01T12:38:37.435Z,57.37
2023-10-01T12:39:37.426Z,55.26
2023-10-01T12:40:37.508Z,53.31
2023-10-01T12:41:37.450Z,53.04
2023-10-01T12:42:37.394Z,54.33
2023-10-01T12:43:37.439Z,54.43
2023-10-01T12:44:37.453Z,54.58
2023-10-01T12:45:37.468Z,53.76
2023-10-01T12:46:37.414Z,52.44
2023-10-01T12:47:37.387Z,52.79
2023-10-01T12:48:37.376Z,52.39
2023-10-01T12:49:37.537Z,51.10
2023-10-01T12:50:37.359Z,51.65
2023-10-01T12:51:37.348Z,52.09
2023-10-01T12:52:37.406Z,53.27